Time;durP1;ratioP1;P1;durP2;ratioP2;P2;SDS_P1;SDS_P2;PMS_P1;PMS_P2;Temp;Humidity;BMP_temperature;BMP_pressure;BME280_temperature;BME280_humidity;BME280_pressure;Samples;Min_cycle;Max_cycle;Signal;HPM_P1;HPM_P2
2024/01/18 00:00:44;;;;;;;3.40;2.00;;;;;;;17.34;32.22;99238.09;16189726;19;129720;-75
2024/01/18 00:06:08;;;;;;;4.85;1.65;;;;;;;17.29;32.23;99260.22;16164432;19;129481;-74
2024/01/18 00:11:30;;;;;;;3.92;1.65;;;;;;;17.24;32.39;99269.31;16144772;19;129251;-74
2024/01/18 00:16:52;;;;;;;3.17;2.10;;;;;;;17.22;32.54;99276.25;16142706;19;129464;-74
2024/01/18 00:22:14;;;;;;;8.48;1.77;;;;;;;17.18;32.57;99281.50;16143762;19;129466;-74
2024/01/18 00:27:36;;;;;;;1.92;1.50;;;;;;;17.14;32.63;99280.38;16140984;19;129417;-74
2024/01/18 00:32:59;;;;;;;5.45;1.80;;;;;;;17.11;32.73;99269.88;16148450;19;129513;-74
2024/01/18 00:38:22;;;;;;;4.90;1.90;;;;;;;17.08;32.53;99275.97;16148123;19;130490;-75
2024/01/18 00:43:44;;;;;;;8.52;1.70;;;;;;;17.03;32.72;99284.25;16147719;19;129811;-74
2024/01/18 00:49:07;;;;;;;1.88;1.55;;;;;;;17.00;32.62;99284.78;16153023;19;128878;-73
2024/01/18 00:54:29;;;;;;;2.47;1.65;;;;;;;16.97;32.45;99288.13;16160465;19;129531;-75
2024/01/18 00:59:53;;;;;;;2.78;1.33;;;;;;;16.92;32.63;99295.28;16176237;19;129791;-74
2024/01/18 01:05:15;;;;;;;4.13;1.67;;;;;;;16.90;32.50;99291.97;16219492;19;128661;-76
2024/01/18 01:10:37;;;;;;;3.83;1.85;;;;;;;16.87;32.60;99309.09;16229662;19;127604;-75
2024/01/18 01:16:00;;;;;;;6.50;1.80;;;;;;;16.85;32.52;99316.00;16213666;19;128587;-74
2024/01/18 01:21:22;;;;;;;3.65;1.67;;;;;;;16.80;32.83;99314.06;16172234;19;129418;-75
2024/01/18 01:26:44;;;;;;;2.35;1.73;;;;;;;16.77;32.54;99325.66;16140534;19;129315;-74
2024/01/18 01:32:06;;;;;;;4.90;1.77;;;;;;;16.76;32.90;99329.50;16136751;19;129428;-74
2024/01/18 01:37:28;;;;;;;3.45;1.75;;;;;;;16.73;32.71;99335.59;16139019;19;130154;-74
2024/01/18 01:42:51;;;;;;;3.45;1.70;;;;;;;16.70;32.57;99327.84;16133028;19;129427;-75
2024/01/18 01:48:13;;;;;;;3.28;1.67;;;;;;;16.68;32.69;99332.81;16137884;19;129429;-75
2024/01/18 01:53:35;;;;;;;5.75;1.92;;;;;;;16.65;32.61;99327.78;16133405;19;129391;-75
2024/01/18 01:58:57;;;;;;;3.38;1.50;;;;;;;16.60;32.75;99315.66;16131024;19;129409;-74
2024/01/18 02:04:20;;;;;;;1.45;1.27;;;;;;;16.58;33.00;99331.66;16135659;19;129753;-74
2024/01/18 02:09:43;;;;;;;2.45;1.27;;;;;;;16.58;32.77;99333.56;16133566;19;129684;-74
2024/01/18 02:15:07;;;;;;;1.23;1.00;;;;;;;16.56;32.87;99347.66;16141818;19;129354;-75
2024/01/18 02:20:29;;;;;;;1.30;0.95;;;;;;;16.55;32.51;99346.00;16141949;19;130369;-75
2024/01/18 02:25:51;;;;;;;2.08;1.20;;;;;;;16.55;32.81;99334.94;16141612;19;130003;-74
2024/01/18 02:31:13;;;;;;;1.00;0.73;;;;;;;16.53;32.80;99341.84;16158145;19;129464;-74
2024/01/18 02:36:35;;;;;;;0.88;0.75;;;;;;;16.50;32.60;99351.47;16150661;19;129141;-74
2024/01/18 02:41:58;;;;;;;0.75;0.57;;;;;;;16.48;32.79;99342.66;16134071;19;128925;-74
2024/01/18 02:47:20;;;;;;;1.98;0.82;;;;;;;16.47;32.55;99354.81;16193567;19;129197;-74
2024/01/18 02:52:42;;;;;;;1.33;0.70;;;;;;;16.44;32.73;99356.16;16202309;19;129133;-75
2024/01/18 02:58:05;;;;;;;0.93;0.60;;;;;;;16.41;32.40;99365.00;16196822;19;129086;-74
2024/01/18 03:03:27;;;;;;;1.58;0.50;;;;;;;16.41;32.78;99361.38;16189319;19;129005;-74
2024/01/18 03:08:49;;;;;;;1.13;0.77;;;;;;;16.37;32.64;99371.34;16136474;19;129085;-74
2024/01/18 03:14:15;;;;;;;1.15;0.73;;;;;;;16.33;32.78;99379.28;16140410;19;129372;-74
2024/01/18 03:19:37;;;;;;;2.37;1.10;;;;;;;16.28;32.44;99380.09;16132683;19;129570;-74
2024/01/18 03:24:59;;;;;;;2.78;1.27;;;;;;;16.25;32.61;99386.16;16129031;19;129533;-74
2024/01/18 03:30:21;;;;;;;1.77;1.00;;;;;;;16.23;32.50;99398.56;16133967;19;129970;-74
2024/01/18 03:35:44;;;;;;;1.30;1.00;;;;;;;16.20;32.75;99404.59;16133519;19;134630;-73
2024/01/18 03:41:06;;;;;;;2.97;1.10;;;;;;;16.16;33.01;99398.81;16135425;19;130941;-74
2024/01/18 03:46:29;;;;;;;1.55;0.98;;;;;;;16.14;32.44;99398.22;16128087;19;129798;-74
2024/01/18 03:51:51;;;;;;;1.50;1.20;;;;;;;16.10;32.75;99403.47;16138857;19;130816;-75
2024/01/18 03:57:13;;;;;;;1.27;1.00;;;;;;;16.08;32.61;99404.81;16133106;19;129377;-74
2024/01/18 04:02:35;;;;;;;1.85;1.40;;;;;;;16.05;32.78;99417.25;16143077;19;129213;-74
2024/01/18 04:07:57;;;;;;;2.13;1.20;;;;;;;16.01;32.54;99422.44;16144299;19;129140;-75
2024/01/18 04:13:19;;;;;;;2.30;1.58;;;;;;;16.01;32.50;99429.88;16159600;19;128981;-74
2024/01/18 04:18:41;;;;;;;2.92;1.33;;;;;;;15.99;32.68;99423.78;16173241;19;129242;-74
2024/01/18 04:24:03;;;;;;;1.77;1.38;;;;;;;15.95;32.70;99431.78;16210612;19;129181;-73
2024/01/18 04:29:28;;;;;;;1.20;1.10;;;;;;;15.92;32.42;99432.31;16216210;19;128349;-74
2024/01/18 04:34:50;;;;;;;1.23;1.13;;;;;;;15.90;32.51;99441.94;16118278;19;129947;-68
2024/01/18 04:40:12;;;;;;;3.97;1.75;;;;;;;15.88;32.71;99453.22;16109589;19;129606;-66
2024/01/18 04:45:34;;;;;;;3.63;1.40;;;;;;;15.85;32.47;99453.78;16105812;19;129798;-66
2024/01/18 04:50:57;;;;;;;2.50;1.40;;;;;;;15.82;32.65;99455.09;16116627;19;130490;-66
2024/01/18 04:56:19;;;;;;;3.63;1.45;;;;;;;15.81;32.83;99469.16;16121882;19;131550;-66
2024/01/18 05:01:41;;;;;;;2.45;1.30;;;;;;;15.79;32.57;99482.38;16118435;19;130682;-67
2024/01/18 05:07:03;;;;;;;3.13;1.55;;;;;;;15.76;32.83;99493.94;16118228;19;130295;-65
2024/01/18 05:12:25;;;;;;;1.80;1.25;;;;;;;15.73;32.55;99491.69;16122778;19;129410;-66
2024/01/18 05:17:50;;;;;;;2.53;1.80;;;;;;;15.73;32.81;99505.47;16122072;19;130719;-65
2024/01/18 05:23:12;;;;;;;1.90;1.50;;;;;;;15.68;32.61;99493.28;16122400;19;130530;-66
2024/01/18 05:28:34;;;;;;;2.67;1.70;;;;;;;15.66;32.38;99506.50;16117833;19;129836;-66
2024/01/18 05:33:56;;;;;;;2.65;1.50;;;;;;;15.62;32.70;99510.91;16120044;19;130330;-65
2024/01/18 05:39:18;;;;;;;1.70;1.33;;;;;;;15.60;32.64;99535.13;16121197;19;129603;-66
2024/01/18 05:44:40;;;;;;;2.38;1.70;;;;;;;15.56;32.72;99528.47;16120316;19;131383;-66
2024/01/18 05:50:02;;;;;;;2.35;1.60;;;;;;;15.54;32.78;99531.47;16121447;19;131601;-65
2024/01/18 05:55:24;;;;;;;3.00;1.60;;;;;;;15.51;32.77;99542.16;16119505;19;131305;-65
2024/01/18 06:00:46;;;;;;;6.70;2.17;;;;;;;15.50;33.05;99537.78;16114350;19;129734;-66
2024/01/18 06:06:10;;;;;;;2.05;1.05;;;;;;;15.55;33.34;99551.59;16115479;19;130091;-67
2024/01/18 06:11:32;;;;;;;3.55;1.75;;;;;;;15.68;33.49;99564.97;16107737;19;130183;-66
2024/01/18 06:16:54;;;;;;;6.57;2.17;;;;;;;15.81;33.01;99579.47;16115661;19;130256;-67
2024/01/18 06:22:15;;;;;;;4.47;2.00;;;;;;;15.92;33.22;99570.19;16112518;19;131645;-67
2024/01/18 06:27:37;;;;;;;3.75;1.92;;;;;;;16.01;33.31;99579.66;16116249;19;129545;-67
2024/01/18 06:32:59;;;;;;;5.63;2.05;;;;;;;16.09;33.06;99594.91;16110793;19;129629;-66
2024/01/18 06:38:21;;;;;;;3.90;2.38;;;;;;;16.20;32.94;99611.56;16114103;19;129478;-67
2024/01/18 06:43:43;;;;;;;7.82;1.92;;;;;;;16.30;32.81;99598.69;16115206;19;129765;-68
2024/01/18 06:49:05;;;;;;;5.53;1.67;;;;;;;16.41;32.27;99615.31;16111275;19;131087;-66
2024/01/18 06:54:27;;;;;;;5.05;2.03;;;;;;;16.51;31.89;99620.94;16112769;19;129260;-66
2024/01/18 06:59:49;;;;;;;5.38;1.85;;;;;;;16.59;31.53;99631.50;16110801;19;129699;-67
2024/01/18 07:05:15;;;;;;;;;;;;;;;16.60;31.51;99638.69;16107610;19;129384;-66
2024/01/18 07:10:37;;;;;;;6.35;1.77;;;;;;;16.62;31.41;99644.75;16107255;19;129502;-66
2024/01/18 07:15:59;;;;;;;3.05;1.52;;;;;;;16.60;31.35;99654.41;16102717;19;130856;-67
2024/01/18 07:21:21;;;;;;;4.38;1.67;;;;;;;16.57;31.47;99665.97;16106512;19;129878;-67
2024/01/18 07:26:43;;;;;;;4.53;1.60;;;;;;;16.51;31.55;99670.63;16108248;19;131235;-67
2024/01/18 07:32:05;;;;;;;1.85;1.40;;;;;;;16.46;31.82;99689.91;16102056;19;130091;-67
2024/01/18 07:37:28;;;;;;;2.22;1.67;;;;;;;16.40;31.42;99697.31;16098960;19;130365;-67
2024/01/18 07:42:50;;;;;;;2.63;1.30;;;;;;;16.34;31.57;99698.34;16095769;19;130638;-67
2024/01/18 07:48:12;;;;;;;4.10;1.60;;;;;;;16.29;31.51;99701.06;16103252;19;130073;-67
2024/01/18 07:53:35;;;;;;;2.38;1.70;;;;;;;16.24;31.36;99710.13;16104592;19;129615;-66
2024/01/18 07:58:57;;;;;;;1.90;1.70;;;;;;;16.19;31.42;99723.88;16107821;19;129232;-66
2024/01/18 08:04:19;;;;;;;1.88;1.50;;;;;;;16.15;31.65;99744.78;16102580;19;129794;-67
2024/01/18 08:09:41;;;;;;;3.05;1.58;;;;;;;16.16;31.65;99746.44;16103049;19;130314;-66
2024/01/18 08:15:04;;;;;;;4.35;1.88;;;;;;;16.20;31.42;99757.81;16102715;19;130776;-66
2024/01/18 08:20:26;;;;;;;2.58;1.98;;;;;;;16.25;31.00;99761.44;16104957;19;130771;-66
2024/01/18 08:25:48;;;;;;;2.58;1.92;;;;;;;16.39;31.23;99777.59;16108833;19;129337;-66
2024/01/18 08:31:10;;;;;;;2.42;1.65;;;;;;;16.58;31.15;99780.84;16117775;19;130058;-66
2024/01/18 08:36:32;;;;;;;3.28;2.00;;;;;;;17.05;30.50;99790.44;16116995;19;131142;-66
2024/01/18 08:41:58;;;;;;;1.80;1.35;;;;;;;17.72;30.08;99806.69;16116422;19;129570;-66
2024/01/18 08:47:22;;;;;;;2.05;1.73;;;;;;;18.35;29.22;99823.31;16117629;19;130545;-67
2024/01/18 08:52:44;;;;;;;2.72;2.00;;;;;;;18.83;28.70;99837.06;16120267;19;129404;-66
2024/01/18 08:58:07;;;;;;;2.28;1.83;;;;;;;19.24;27.72;99843.81;16119789;19;129892;-66
2024/01/18 09:03:28;;;;;;;2.70;2.05;;;;;;;19.45;27.32;99855.69;16116939;19;129850;-66
2024/01/18 09:08:50;;;;;;;2.85;2.47;;;;;;;19.66;27.30;99868.47;16118824;19;130236;-66
2024/01/18 09:14:12;;;;;;;3.20;2.10;;;;;;;19.75;26.79;99884.53;16115413;19;129924;-66
2024/01/18 09:19:35;;;;;;;2.97;1.90;;;;;;;19.81;26.97;99884.25;16115871;19;129431;-66
2024/01/18 09:24:58;;;;;;;2.15;1.95;;;;;;;19.88;26.50;99894.25;16118941;19;131121;-66
2024/01/18 09:30:20;;;;;;;2.70;2.30;;;;;;;19.97;26.35;99900.88;16114956;19;129153;-66
2024/01/18 09:35:42;;;;;;;2.38;2.15;;;;;;;20.09;26.58;99912.56;16120439;19;129632;-66
2024/01/18 09:41:09;;;;;;;3.13;2.35;;;;;;;20.27;26.50;99916.69;16115003;19;130317;-66
2024/01/18 09:46:31;;;;;;;3.00;1.92;;;;;;;20.56;25.98;99935.44;16119118;19;129727;-66
2024/01/18 09:51:57;;;;;;;3.17;2.20;;;;;;;20.97;25.66;99934.50;16117915;19;129768;-67
2024/01/18 09:57:30;;;;;;;3.08;2.30;;;;;;;21.45;25.30;99961.69;16115144;19;129630;-67
2024/01/18 10:02:52;;;;;;;2.58;2.30;;;;;;;21.94;24.73;99975.81;16114537;19;129493;-67
2024/01/18 10:08:14;;;;;;;3.53;2.45;;;;;;;22.44;24.38;99984.03;16114030;19;129462;-67
2024/01/18 10:13:54;;;;;;;2.00;1.80;;;;;;;23.02;23.73;99990.59;16111243;19;130747;-66
2024/01/18 10:19:18;;;;;;;2.90;2.00;;;;;;;23.58;23.12;99990.91;16106358;19;130350;-66
2024/01/18 10:24:41;;;;;;;2.33;2.10;;;;;;;24.09;22.79;100003.25;16111891;19;130011;-67
2024/01/18 10:30:03;;;;;;;2.53;2.00;;;;;;;24.54;22.24;100006.34;16112060;19;133370;-67
2024/01/18 10:35:26;;;;;;;2.80;2.20;;;;;;;24.98;21.70;100020.91;16104236;19;131042;-66
2024/01/18 10:40:50;;;;;;;2.20;1.83;;;;;;;25.40;20.99;100020.81;16107045;19;131049;-66
2024/01/18 10:46:12;;;;;;;;;;;;;;;25.73;20.68;100036.63;16105841;19;131205;-66
2024/01/18 10:51:37;;;;;;;2.00;1.80;;;;;;;26.14;20.43;100037.63;16107740;19;129467;-66
2024/01/18 10:57:00;;;;;;;2.92;1.75;;;;;;;26.44;20.27;100054.81;16105056;19;129747;-65
2024/01/18 11:02:22;;;;;;;2.33;1.80;;;;;;;26.66;19.74;100060.34;16104007;19;129449;-65
2024/01/18 11:07:45;;;;;;;1.95;1.83;;;;;;;26.92;19.41;100070.06;16106263;19;129745;-66
2024/01/18 11:13:09;;;;;;;2.30;2.10;;;;;;;26.95;19.73;100078.69;16106206;19;131912;-66
2024/01/18 11:18:34;;;;;;;1.70;1.60;;;;;;;26.92;19.56;100086.91;16107987;19;129815;-66
2024/01/18 11:23:56;;;;;;;2.45;1.85;;;;;;;26.69;19.65;100089.72;16107896;19;129720;-65
2024/01/18 11:29:19;;;;;;;2.28;1.90;;;;;;;26.22;19.57;100092.91;16109341;19;131120;-66
2024/01/18 11:34:42;;;;;;;2.60;1.80;;;;;;;25.70;19.92;100096.09;16107887;19;129422;-66
2024/01/18 11:40:10;;;;;;;2.33;1.65;;;;;;;25.21;20.72;100113.34;16105573;19;129710;-68
2024/01/18 11:45:34;;;;;;;1.77;1.58;;;;;;;24.71;21.12;100117.63;16106038;19;129774;-69
2024/01/18 11:51:00;;;;;;;2.63;1.98;;;;;;;24.30;21.18;100123.09;16107080;19;129600;-72
2024/01/18 11:56:23;;;;;;;1.83;1.52;;;;;;;23.94;21.65;100127.22;16105359;19;129434;-70
2024/01/18 12:01:45;;;;;;;2.00;1.70;;;;;;;23.63;21.94;100139.66;16123074;19;131421;-70
2024/01/18 12:07:10;;;;;;;2.15;1.48;;;;;;;23.41;22.04;100137.44;16122134;19;129624;-69
2024/01/18 12:12:32;;;;;;;1.50;1.40;;;;;;;23.21;22.37;100141.31;16122098;19;129076;-66
2024/01/18 12:17:55;;;;;;;1.98;1.40;;;;;;;23.08;22.43;100150.38;16126055;19;130451;-66
2024/01/18 12:23:17;;;;;;;1.75;1.50;;;;;;;22.97;23.02;100163.59;16126449;19;129363;-66
2024/01/18 12:28:39;;;;;;;2.55;1.30;;;;;;;22.91;22.93;100173.97;16131070;19;130436;-66
2024/01/18 12:34:01;;;;;;;2.58;1.40;;;;;;;22.88;22.96;100166.19;16128577;19;129405;-66
2024/01/18 12:39:23;;;;;;;2.03;1.40;;;;;;;23.18;23.11;100179.00;16121312;19;132776;-67
2024/01/18 12:44:45;;;;;;;1.30;1.10;;;;;;;23.60;22.63;100189.69;16134061;19;129583;-66
2024/01/18 12:50:10;;;;;;;1.75;1.10;;;;;;;23.96;22.35;100195.66;16130627;19;130465;-66
2024/01/18 12:55:32;;;;;;;1.77;1.30;;;;;;;24.22;22.20;100177.69;16133133;19;131356;-66
2024/01/18 13:00:54;;;;;;;1.65;1.10;;;;;;;24.39;22.12;100192.00;16136237;19;129950;-66
2024/01/18 13:06:17;;;;;;;1.77;1.08;;;;;;;24.51;21.63;100199.88;16139631;19;130470;-67
2024/01/18 13:11:39;;;;;;;1.60;1.00;;;;;;;24.54;21.58;100207.69;16135272;19;130687;-65
2024/01/18 13:17:01;;;;;;;2.05;1.20;;;;;;;24.53;21.47;100213.59;16128231;19;130289;-68
2024/01/18 13:22:23;;;;;;;1.10;1.00;;;;;;;24.46;21.89;100222.34;16123477;19;129561;-65
2024/01/18 13:27:45;;;;;;;1.10;1.00;;;;;;;24.08;21.53;100233.50;16119705;19;129584;-66
2024/01/18 13:33:07;;;;;;;0.98;0.88;;;;;;;23.62;22.14;100249.72;16121803;19;131398;-66
2024/01/18 13:38:33;;;;;;;;;;;;;;;23.19;22.25;100255.16;16120327;19;130852;-66
2024/01/18 13:43:55;;;;;;;0.98;0.80;;;;;;;22.74;22.67;100258.03;16123907;19;129529;-66
2024/01/18 13:49:18;;;;;;;1.23;1.00;;;;;;;22.23;23.32;100270.34;16119209;19;129507;-66
2024/01/18 13:54:40;;;;;;;1.75;0.70;;;;;;;21.79;23.15;100295.00;16118976;19;130575;-66
2024/01/18 14:00:02;;;;;;;2.22;0.82;;;;;;;21.46;23.43;100307.59;16116730;19;130192;-66
2024/01/18 14:05:27;;;;;;;1.42;0.90;;;;;;;21.29;24.01;100310.69;16118994;19;129802;-66
2024/01/18 14:10:49;;;;;;;1.20;0.90;;;;;;;21.06;24.01;100327.66;16114010;19;130172;-66
2024/01/18 14:16:14;;;;;;;1.10;0.70;;;;;;;20.85;24.14;100328.75;16117911;19;129392;-66
2024/01/18 14:21:36;;;;;;;0.90;0.60;;;;;;;20.68;24.53;100335.38;16110458;19;129389;-66
2024/01/18 14:26:59;;;;;;;1.23;0.70;;;;;;;20.66;24.24;100362.59;16114470;19;129487;-66
2024/01/18 14:32:21;;;;;;;0.85;0.50;;;;;;;20.64;24.28;100369.53;16114761;19;129742;-65
2024/01/18 14:37:43;;;;;;;1.42;0.75;;;;;;;20.56;24.56;100387.56;16139938;19;132787;-66
2024/01/18 14:43:05;;;;;;;0.73;0.68;;;;;;;20.42;24.47;100392.81;16179930;19;129489;-66
2024/01/18 14:48:27;;;;;;;1.48;0.77;;;;;;;20.20;25.08;100404.91;16174948;19;130034;-66
2024/01/18 14:53:49;;;;;;;0.85;0.70;;;;;;;20.03;24.89;100415.38;16177862;19;129942;-66
2024/01/18 14:59:11;;;;;;;1.10;0.75;;;;;;;19.85;25.48;100431.34;16175167;19;128933;-66
2024/01/18 15:04:33;;;;;;;1.17;0.70;;;;;;;19.71;25.66;100446.75;16171132;19;129645;-66
2024/01/18 15:09:55;;;;;;;1.08;0.60;;;;;;;19.56;25.88;100461.34;16170368;19;128950;-66
2024/01/18 15:15:19;;;;;;;1.08;0.65;;;;;;;19.44;26.03;100473.47;16167694;19;130206;-66
2024/01/18 15:20:41;;;;;;;1.10;0.60;;;;;;;19.28;26.23;100488.28;16179614;19;129814;-66
2024/01/18 15:26:04;;;;;;;1.73;0.75;;;;;;;19.08;26.39;100496.06;16175849;19;129964;-66
2024/01/18 15:31:31;;;;;;;0.95;0.70;;;;;;;18.89;26.38;100514.16;16178053;19;130363;-67
2024/01/18 15:36:52;;;;;;;1.08;0.70;;;;;;;18.71;26.53;100538.31;16182117;19;129226;-67
2024/01/18 15:42:14;;;;;;;1.40;0.75;;;;;;;18.55;26.73;100548.34;16179696;19;128835;-66
2024/01/18 15:47:41;;;;;;;0.93;0.43;;;;;;;18.41;26.89;100558.94;16182115;19;129164;-66
2024/01/18 15:53:03;;;;;;;0.75;0.50;;;;;;;18.25;27.26;100566.16;16180901;19;129850;-66
2024/01/18 15:58:25;;;;;;;0.93;0.70;;;;;;;18.13;27.65;100579.25;16180382;19;128866;-66
2024/01/18 16:03:50;;;;;;;0.93;0.70;;;;;;;18.04;27.46;100598.19;16180247;19;129050;-66
2024/01/18 16:09:13;;;;;;;0.88;0.52;;;;;;;18.06;27.66;100612.63;16180305;19;129023;-67
2024/01/18 16:14:35;;;;;;;0.80;0.50;;;;;;;18.08;27.92;100623.44;16166429;19;130068;-66
2024/01/18 16:19:57;;;;;;;2.35;0.40;;;;;;;18.12;28.14;100633.75;16156830;19;129584;-66
2024/01/18 16:25:19;;;;;;;0.40;0.40;;;;;;;18.18;28.21;100639.41;16152397;19;129216;-67
2024/01/18 16:30:42;;;;;;;1.20;0.40;;;;;;;18.23;28.02;100645.88;16149657;19;130943;-67
2024/01/18 16:36:04;;;;;;;1.63;0.80;;;;;;;18.22;27.65;100671.88;16155166;19;130898;-67
2024/01/18 16:41:26;;;;;;;7.97;1.17;;;;;;;18.02;26.56;100688.94;16156885;19;130246;-67
2024/01/18 16:46:48;;;;;;;5.68;1.10;;;;;;;17.92;26.61;100697.06;16157778;19;129744;-67
2024/01/18 16:52:10;;;;;;;1.23;0.90;;;;;;;17.88;26.86;100710.56;16158662;19;129081;-67
2024/01/18 16:57:33;;;;;;;7.45;1.23;;;;;;;17.89;27.80;100716.91;16167248;19;129658;-70
2024/01/18 17:02:55;;;;;;;9.18;1.48;;;;;;;17.92;28.62;100721.97;16129537;19;129410;-65
2024/01/18 17:08:17;;;;;;;9.90;1.20;;;;;;;17.96;29.37;100737.81;16119683;19;130615;-64
2024/01/18 17:13:39;;;;;;;5.50;1.40;;;;;;;18.00;30.24;100732.63;16117771;19;130526;-66
2024/01/18 17:19:02;;;;;;;4.13;0.82;;;;;;;18.02;31.39;100752.59;16119552;19;130289;-67
2024/01/18 17:24:26;;;;;;;4.30;1.33;;;;;;;18.03;31.58;100757.06;16116101;19;129421;-66
2024/01/18 17:29:50;;;;;;;4.15;1.48;;;;;;;18.05;31.95;100768.72;16124467;19;133941;-68
2024/01/18 17:35:12;;;;;;;2.90;1.00;;;;;;;18.03;32.51;100783.91;16136160;19;129527;-68
2024/01/18 17:40:34;;;;;;;4.60;1.02;;;;;;;17.99;32.28;100791.84;16113980;19;129425;-67
2024/01/18 17:45:56;;;;;;;4.00;1.00;;;;;;;17.93;32.22;100795.59;16115007;19;130369;-67
2024/01/18 17:51:18;;;;;;;2.95;0.88;;;;;;;17.87;32.65;100808.50;16125709;19;131064;-66
2024/01/18 17:56:41;;;;;;;3.42;0.80;;;;;;;17.82;32.55;100811.16;16128892;19;131099;-66
2024/01/18 18:02:05;;;;;;;3.15;0.80;;;;;;;17.75;32.00;100825.09;16132412;19;129343;-65
2024/01/18 18:07:27;;;;;;;1.83;0.70;;;;;;;17.67;32.06;100831.03;16136434;19;129378;-66
2024/01/18 18:12:49;;;;;;;1.33;0.60;;;;;;;17.60;31.74;100835.84;16126837;19;130003;-66
2024/01/18 18:18:11;;;;;;;3.70;0.88;;;;;;;17.51;32.19;100844.47;16129877;19;129716;-65
2024/01/18 18:23:33;;;;;;;1.83;0.70;;;;;;;17.46;32.17;100852.66;16119548;19;130098;-68
2024/01/18 18:28:55;;;;;;;3.72;0.90;;;;;;;17.40;31.86;100870.19;16120654;19;131141;-66
2024/01/18 18:34:17;;;;;;;1.98;0.90;;;;;;;17.35;31.70;100886.69;16122069;19;130304;-65
2024/01/18 18:39:49;;;;;;;4.65;1.10;;;;;;;17.28;31.96;100897.84;16117113;19;131068;-66
2024/01/18 18:45:13;;;;;;;6.35;1.25;;;;;;;17.21;31.95;100916.44;16026958;19;157736;-64
2024/01/18 18:50:35;;;;;;;8.35;1.23;;;;;;;17.15;32.04;100926.53;16113875;19;130595;-67
2024/01/18 18:55:57;;;;;;;5.72;1.55;;;;;;;17.10;31.78;100931.09;16111701;19;129751;-64
2024/01/18 19:01:19;;;;;;;5.47;1.40;;;;;;;17.05;32.09;100945.63;16107871;19;130694;-65
2024/01/18 19:06:41;;;;;;;8.50;1.60;;;;;;;17.00;32.18;100965.66;16116890;19;130612;-66
2024/01/18 19:12:03;;;;;;;4.53;1.38;;;;;;;16.96;31.81;100964.44;16113830;19;131305;-66
2024/01/18 19:17:25;;;;;;;5.57;1.35;;;;;;;16.91;32.16;100978.97;16113822;19;129510;-65
2024/01/18 19:22:47;;;;;;;5.82;1.38;;;;;;;16.88;32.02;100992.41;16114299;19;130323;-66
2024/01/18 19:28:10;;;;;;;7.97;1.55;;;;;;;16.83;31.97;101004.16;16117985;19;129900;-66
2024/01/18 19:33:33;;;;;;;6.25;1.40;;;;;;;16.81;32.29;101008.22;16112812;19;130806;-66
2024/01/18 19:38:55;;;;;;;7.68;1.35;;;;;;;16.79;32.29;101029.72;16114120;19;129606;-66
2024/01/18 19:44:17;;;;;;;7.45;2.08;;;;;;;16.75;32.08;101038.47;16109068;19;130351;-65
2024/01/18 19:49:39;;;;;;;12.70;2.15;;;;;;;16.73;31.89;101042.56;16110548;19;130289;-64
2024/01/18 19:55:03;;;;;;;13.63;2.05;;;;;;;16.73;32.12;101054.44;16112688;19;130235;-67
2024/01/18 20:00:26;;;;;;;12.15;2.05;;;;;;;16.73;32.06;101064.66;16112571;19;130645;-67
2024/01/18 20:05:48;;;;;;;6.03;1.70;;;;;;;16.70;32.54;101065.94;16112352;19;131362;-67
2024/01/18 20:11:13;;;;;;;11.38;1.80;;;;;;;16.68;32.47;101076.38;16110456;19;129445;-67
2024/01/18 20:16:37;;;;;;;5.73;1.70;;;;;;;16.66;32.24;101086.81;16106810;19;131506;-67
2024/01/18 20:21:59;;;;;;;9.40;1.77;;;;;;;16.65;32.31;101103.56;16114981;19;131568;-67
2024/01/18 20:27:22;;;;;;;10.13;1.50;;;;;;;16.63;32.51;101121.22;16122430;19;129942;-65
2024/01/18 20:32:44;;;;;;;5.57;1.45;;;;;;;16.62;32.65;101130.56;16118395;19;130013;-64
2024/01/18 20:38:06;;;;;;;3.28;1.50;;;;;;;16.59;32.51;101133.81;16120593;19;129665;-64
2024/01/18 20:43:28;;;;;;;5.10;1.42;;;;;;;16.57;33.11;101147.00;16121646;19;133872;-66
2024/01/18 20:48:50;;;;;;;5.55;1.75;;;;;;;16.57;32.84;101154.44;16121982;19;129676;-67
2024/01/18 20:54:16;;;;;;;4.72;1.60;;;;;;;16.55;32.70;101160.19;16124438;19;131029;-66
2024/01/18 20:59:38;;;;;;;15.38;6.05;;;;;;;16.57;33.31;101166.34;16127835;19;129559;-65
2024/01/18 21:05:00;;;;;;;18.23;5.25;;;;;;;16.59;33.27;101169.72;16126719;19;129709;-67
2024/01/18 21:10:23;;;;;;;19.00;4.68;;;;;;;16.62;33.28;101174.78;16127563;19;130722;-68
2024/01/18 21:15:45;;;;;;;9.07;4.00;;;;;;;16.63;33.29;101187.53;16118612;19;129633;-67
2024/01/18 21:21:07;;;;;;;22.45;4.32;;;;;;;16.65;33.32;101200.25;16116297;19;131278;-67
2024/01/18 21:26:29;;;;;;;14.20;3.97;;;;;;;16.59;33.35;101210.28;16110777;19;131258;-67
2024/01/18 21:31:52;;;;;;;8.75;3.25;;;;;;;16.56;33.26;101224.56;16111662;19;130150;-68
2024/01/18 21:37:14;;;;;;;11.80;3.60;;;;;;;16.51;33.07;101228.00;16117791;19;129515;-65
2024/01/18 21:42:36;;;;;;;8.25;2.83;;;;;;;16.47;33.28;101232.28;16110572;19;129973;-66
2024/01/18 21:47:58;;;;;;;6.18;2.70;;;;;;;16.42;33.12;101240.38;16110382;19;131594;-67
2024/01/18 21:53:20;;;;;;;10.82;2.92;;;;;;;16.38;33.20;101248.28;16116810;19;129556;-67
2024/01/18 21:58:42;;;;;;;8.88;2.40;;;;;;;16.34;33.08;101249.78;16112963;19;131367;-67
2024/01/18 22:04:07;;;;;;;9.60;3.10;;;;;;;16.29;33.50;101253.22;16116741;19;129788;-66
2024/01/18 22:09:29;;;;;;;12.68;2.30;;;;;;;16.24;33.54;101253.06;16112951;19;130783;-65
2024/01/18 22:15:04;;;;;;;6.38;2.72;;;;;;;16.22;33.11;101257.09;16110451;19;130409;-65
2024/01/18 22:20:26;;;;;;;8.15;2.50;;;;;;;16.16;33.39;101265.19;16111172;19;131527;-65
2024/01/18 22:25:48;;;;;;;9.32;2.55;;;;;;;16.13;33.33;101264.78;16120031;19;130416;-65
2024/01/18 22:31:10;;;;;;;8.45;2.50;;;;;;;16.10;33.21;101282.63;16112435;19;131257;-65
2024/01/18 22:36:32;;;;;;;7.22;2.20;;;;;;;16.06;33.22;101286.06;16115308;19;132016;-66
2024/01/18 22:41:54;;;;;;;4.15;2.20;;;;;;;16.03;33.20;101305.81;16118200;19;129655;-65
2024/01/18 22:47:16;;;;;;;4.45;2.53;;;;;;;15.98;33.30;101304.56;16114356;19;130724;-65
2024/01/18 22:52:38;;;;;;;3.80;2.40;;;;;;;15.94;33.42;101303.31;16110129;19;131717;-65
2024/01/18 22:58:00;;;;;;;4.60;2.03;;;;;;;15.92;32.94;101321.16;16111204;19;129125;-65
2024/01/18 23:03:22;;;;;;;6.47;2.08;;;;;;;15.88;33.32;101317.13;16114131;19;131255;-65
2024/01/18 23:08:44;;;;;;;6.28;2.33;;;;;;;15.84;32.91;101334.09;16120388;19;129971;-65
2024/01/18 23:14:06;;;;;;;4.28;2.15;;;;;;;15.82;33.24;101347.28;16110621;19;129652;-66
2024/01/18 23:19:28;;;;;;;5.60;2.70;;;;;;;15.81;33.22;101340.09;16111146;19;131199;-66
2024/01/18 23:24:50;;;;;;;3.88;2.92;;;;;;;15.78;33.08;101336.88;16105621;19;129621;-65
2024/01/18 23:30:12;;;;;;;7.55;3.20;;;;;;;15.77;32.51;101338.81;16109639;19;130367;-65
2024/01/18 23:35:34;;;;;;;4.72;2.80;;;;;;;15.76;32.40;101342.63;16105498;19;129453;-66
2024/01/18 23:40:56;;;;;;;5.53;2.97;;;;;;;15.74;32.20;101343.94;16109088;19;130698;-65
2024/01/18 23:46:18;;;;;;;3.65;2.50;;;;;;;15.70;32.53;101348.97;16106369;19;130821;-66
2024/01/18 23:51:40;;;;;;;5.78;2.80;;;;;;;15.68;32.39;101360.22;16108544;19;129947;-65
2024/01/18 23:57:02;;;;;;;4.63;2.38;;;;;;;15.64;32.59;101358.97;16104861;19;130318;-65
